createdAt,value
2022-08-28T00:02:24.034Z,15.70
2022-08-28T00:05:31.334Z,23.40
2022-08-28T00:08:34.636Z,16.80
2022-08-28T00:11:37.856Z,15.60
2022-08-28T00:14:40.978Z,16.00
2022-08-28T00:17:44.052Z,17.50
2022-08-28T00:20:47.848Z,14.70
2022-08-28T00:23:51.094Z,12.50
2022-08-28T00:27:32.481Z,15.50
2022-08-28T00:30:40.203Z,14.20
2022-08-28T00:33:43.386Z,17.80
2022-08-28T00:36:46.249Z,16.30
2022-08-28T00:39:49.419Z,14.80
2022-08-28T00:42:52.314Z,14.40
2022-08-28T00:45:55.195Z,13.30
2022-08-28T00:48:58.119Z,14.10
2022-08-28T00:52:12.537Z,14.00
2022-08-28T00:55:19.203Z,16.40
2022-08-28T00:58:22.293Z,14.20
2022-08-28T01:01:25.324Z,15.50
2022-08-28T01:04:32.366Z,17.50
2022-08-28T01:07:38.228Z,16.50
2022-08-28T01:10:45.880Z,14.10
2022-08-28T01:13:51.266Z,14.30
2022-08-28T01:16:58.034Z,18.10
2022-08-28T01:20:06.973Z,14.60
2022-08-28T01:23:23.645Z,15.40
2022-08-28T01:26:28.382Z,21.70
2022-08-28T01:29:31.577Z,18.70
2022-08-28T01:32:38.471Z,19.90
2022-08-28T01:35:44.755Z,19.20
2022-08-28T01:38:50.541Z,17.20
2022-08-28T01:41:55.964Z,18.50
2022-08-28T01:44:59.236Z,17.20
2022-08-28T01:48:02.337Z,14.60
2022-08-28T01:51:06.485Z,16.90
2022-08-28T01:54:10.733Z,15.10
2022-08-28T01:57:14.982Z,16.90
2022-08-28T02:00:28.814Z,16.10
2022-08-28T02:03:33.518Z,16.10
2022-08-28T02:06:37.928Z,13.60
2022-08-28T02:09:41.266Z,17.10
2022-08-28T02:12:44.210Z,18.90
2022-08-28T02:15:47.223Z,16.50
2022-08-28T02:18:50.165Z,14.50
2022-08-28T02:21:53.118Z,15.90
2022-08-28T02:24:56.011Z,13.60
2022-08-28T02:27:59.500Z,13.00
2022-08-28T02:31:02.687Z,13.20
2022-08-28T02:34:06.030Z,16.60
2022-08-28T02:37:11.450Z,15.90
2022-08-28T02:40:16.778Z,13.40
2022-08-28T02:43:19.803Z,17.90
2022-08-28T02:46:23.295Z,20.20
2022-08-28T02:49:26.660Z,18.90
2022-08-28T02:52:43.982Z,16.80
2022-08-28T02:55:46.838Z,17.10
2022-08-28T02:58:49.660Z,20.90
2022-08-28T03:01:53.361Z,15.40
2022-08-28T03:04:56.308Z,15.70
2022-08-28T03:07:59.814Z,16.90
2022-08-28T03:11:02.688Z,15.30
2022-08-28T03:14:05.595Z,15.00
2022-08-28T03:17:08.654Z,15.10
2022-08-28T03:20:13.557Z,17.30
2022-08-28T03:23:28.430Z,17.40
2022-08-28T03:26:31.546Z,18.00
2022-08-28T03:29:35.765Z,16.60
2022-08-28T03:32:38.639Z,14.70
2022-08-28T03:35:41.587Z,15.30
2022-08-28T03:38:45.018Z,17.30
2022-08-28T03:41:47.913Z,17.70
2022-08-28T03:44:51.550Z,15.10
2022-08-28T03:47:54.428Z,16.10
2022-08-28T03:50:58.454Z,16.30
2022-08-28T03:54:02.412Z,16.20
2022-08-28T03:57:05.288Z,15.20
2022-08-28T04:00:12.310Z,20.00
2022-08-28T04:03:15.552Z,15.50
2022-08-28T04:06:21.044Z,16.00
2022-08-28T04:09:24.116Z,16.10
2022-08-28T04:12:27.068Z,15.70
2022-08-28T04:15:30.513Z,16.00
2022-08-28T04:18:34.025Z,14.50
2022-08-28T04:21:36.951Z,14.60
2022-08-28T04:24:39.828Z,15.40
2022-08-28T04:27:42.832Z,19.00
2022-08-28T04:30:46.414Z,23.00
2022-08-28T04:33:49.317Z,24.70
2022-08-28T04:36:52.763Z,23.80
2022-08-28T04:39:56.117Z,20.30
2022-08-28T04:42:59.088Z,23.60
2022-08-28T04:46:08.077Z,22.70
2022-08-28T04:49:12.192Z,19.50
2022-08-28T04:52:15.184Z,22.80
2022-08-28T04:55:18.210Z,20.30
2022-08-28T04:58:34.419Z,21.00
2022-08-28T05:01:37.498Z,19.20
2022-08-28T05:04:40.990Z,16.90
2022-08-28T05:07:44.998Z,18.00
2022-08-28T05:10:48.832Z,19.10
2022-08-28T05:13:52.786Z,15.90
2022-08-28T05:16:57.854Z,18.70
2022-08-28T05:20:00.743Z,19.40
2022-08-28T05:23:04.973Z,21.20
2022-08-28T05:26:12.620Z,17.10
2022-08-28T05:29:16.919Z,17.50
2022-08-28T05:32:20.839Z,17.30
2022-08-28T05:35:24.973Z,20.30
2022-08-28T05:38:28.633Z,17.30
2022-08-28T05:41:32.383Z,20.70
2022-08-28T05:44:35.323Z,18.30
2022-08-28T05:47:39.043Z,18.90
2022-08-28T05:50:47.341Z,19.90
2022-08-28T05:53:51.743Z,20.50
2022-08-28T05:56:54.908Z,19.80
2022-08-28T05:59:57.757Z,20.50
2022-08-28T06:03:00.598Z,18.80
2022-08-28T06:06:04.513Z,19.10
2022-08-28T06:09:13.489Z,20.70
2022-08-28T06:12:16.763Z,18.60
2022-08-28T06:15:20.960Z,19.00
2022-08-28T06:18:25.540Z,17.30
2022-08-28T06:21:29.481Z,23.30
2022-08-28T06:24:34.035Z,19.20
2022-08-28T06:27:39.348Z,17.10
2022-08-28T06:30:57.351Z,18.40
2022-08-28T06:34:06.740Z,20.60
2022-08-28T06:37:10.375Z,17.30
2022-08-28T06:40:14.213Z,16.00
2022-08-28T06:43:18.532Z,17.20
2022-08-28T06:46:22.005Z,18.70
2022-08-28T06:49:25.256Z,18.60
2022-08-28T06:52:28.151Z,19.10
2022-08-28T06:55:31.006Z,20.10
2022-08-28T06:58:40.704Z,21.10
2022-08-28T07:01:43.619Z,19.70
2022-08-28T07:04:50.369Z,19.70
2022-08-28T07:07:53.521Z,21.00
2022-08-28T07:10:58.548Z,19.30
2022-08-28T07:14:02.247Z,20.00
2022-08-28T07:17:07.351Z,22.10
2022-08-28T07:20:11.563Z,19.10
2022-08-28T07:23:14.471Z,20.50
2022-08-28T07:26:20.886Z,18.40
2022-08-28T07:29:23.871Z,19.60
2022-08-28T07:32:26.923Z,21.60
2022-08-28T07:35:29.841Z,21.90
2022-08-28T07:38:32.807Z,19.70
2022-08-28T07:41:39.339Z,17.90
2022-08-28T07:44:51.159Z,23.60
2022-08-28T07:47:54.058Z,19.00
2022-08-28T07:50:57.113Z,20.40
2022-08-28T07:54:00.026Z,23.10
2022-08-28T07:57:04.567Z,24.20
2022-08-28T08:00:08.224Z,21.80
2022-08-28T08:03:15.060Z,21.10
2022-08-28T08:06:17.982Z,24.60
2022-08-28T08:09:21.307Z,24.00
2022-08-28T08:12:25.157Z,22.10
2022-08-28T08:15:34.059Z,18.90
2022-08-28T08:18:38.092Z,22.90
2022-08-28T08:21:43.574Z,24.80
2022-08-28T08:24:46.409Z,22.90
2022-08-28T08:27:50.817Z,20.90
2022-08-28T08:31:14.789Z,24.50
2022-08-28T08:34:17.654Z,27.00
2022-08-28T08:37:20.612Z,23.80
2022-08-28T08:40:23.690Z,25.60
2022-08-28T08:43:29.623Z,25.20
2022-08-28T08:46:41.166Z,22.20
2022-08-28T08:49:57.253Z,25.40
2022-08-28T08:53:24.589Z,27.40
2022-08-28T08:56:35.036Z,19.30
2022-08-28T08:59:40.030Z,21.90
2022-08-28T09:03:02.635Z,17.90
2022-08-28T09:06:10.745Z,18.20
2022-08-28T09:09:35.220Z,16.90
2022-08-28T09:13:15.871Z,22.20
2022-08-28T09:16:32.457Z,20.30
2022-08-28T09:19:35.519Z,20.40
2022-08-28T09:22:43.763Z,18.10
2022-08-28T09:25:51.949Z,19.00
2022-08-28T09:29:16.694Z,17.50
2022-08-28T09:32:19.636Z,20.20
2022-08-28T09:35:34.672Z,15.70
2022-08-28T09:38:39.113Z,17.60
2022-08-28T09:42:14.226Z,16.90
2022-08-28T09:45:23.037Z,20.10
2022-08-28T09:48:43.885Z,17.40
2022-08-28T09:51:46.756Z,18.60
2022-08-28T09:54:50.999Z,19.60
2022-08-28T09:57:55.820Z,18.50
2022-08-28T10:01:08.492Z,23.70
2022-08-28T10:04:38.271Z,18.70
2022-08-28T10:08:04.527Z,21.30
2022-08-28T10:11:31.895Z,22.90
2022-08-28T10:14:43.779Z,20.50
2022-08-28T10:18:07.664Z,25.40
2022-08-28T10:21:13.440Z,26.70
2022-08-28T10:24:43.129Z,24.10
2022-08-28T10:27:55.912Z,22.10
2022-08-28T10:31:23.079Z,24.90
2022-08-28T10:34:44.431Z,27.00
2022-08-28T10:37:59.721Z,25.70
2022-08-28T10:41:10.333Z,25.40
2022-08-28T10:44:20.054Z,23.40
2022-08-28T10:47:25.735Z,22.90
2022-08-28T10:50:47.075Z,21.60
2022-08-28T10:53:58.351Z,21.20
2022-08-28T10:57:19.767Z,27.10
2022-08-28T11:00:25.176Z,22.60
2022-08-28T11:03:35.423Z,21.70
2022-08-28T11:06:47.980Z,22.80
2022-08-28T11:09:51.087Z,22.80
2022-08-28T11:12:54.047Z,20.10
2022-08-28T11:15:57.070Z,19.60
2022-08-28T11:19:20.180Z,20.80
2022-08-28T11:22:34.958Z,19.60
2022-08-28T11:25:50.227Z,18.00
2022-08-28T11:28:53.278Z,17.80
2022-08-28T11:32:31.798Z,19.20
2022-08-28T11:35:49.962Z,19.10
2022-08-28T11:38:55.771Z,17.70
2022-08-28T11:42:10.900Z,20.90
2022-08-28T11:45:42.564Z,18.40
2022-08-28T11:48:54.913Z,19.10
2022-08-28T11:52:05.250Z,18.10
2022-08-28T11:55:25.334Z,19.10
2022-08-28T11:59:02.170Z,19.20
2022-08-28T12:02:34.156Z,18.40
2022-08-28T12:05:46.115Z,17.40
2022-08-28T12:08:49.035Z,18.90
2022-08-28T12:12:00.813Z,15.20
2022-08-28T12:15:08.497Z,14.30
2022-08-28T12:18:11.740Z,16.10
2022-08-28T12:21:20.969Z,16.30
2022-08-28T12:24:24.630Z,12.70
2022-08-28T12:27:29.452Z,13.80
2022-08-28T12:30:41.661Z,16.70
2022-08-28T12:33:57.589Z,13.60
2022-08-28T12:37:02.867Z,16.50
2022-08-28T12:40:08.893Z,16.20
2022-08-28T12:43:15.330Z,15.60
2022-08-28T12:46:25.838Z,14.40
2022-08-28T12:49:36.120Z,13.90
2022-08-28T12:52:48.572Z,12.10
2022-08-28T12:55:51.887Z,11.40
2022-08-28T12:58:55.000Z,14.40
2022-08-28T13:02:12.291Z,14.60
2022-08-28T13:05:39.695Z,15.70
2022-08-28T13:08:42.721Z,16.20
2022-08-28T13:11:49.183Z,13.70
2022-08-28T13:14:52.570Z,16.20
2022-08-28T13:17:55.726Z,14.70
2022-08-28T13:21:33.233Z,14.80
2022-08-28T13:24:42.463Z,14.60
2022-08-28T13:27:45.634Z,13.60
2022-08-28T13:30:58.352Z,14.90
2022-08-28T13:34:16.472Z,14.30
2022-08-28T13:37:41.015Z,11.70
2022-08-28T13:40:59.426Z,7.40
2022-08-28T13:44:02.768Z,6.20
2022-08-28T13:47:07.119Z,3.90
2022-08-28T13:50:10.012Z,5.40
2022-08-28T13:53:13.638Z,5.30
2022-08-28T13:56:17.303Z,11.60
2022-08-28T13:59:20.769Z,7.80
2022-08-28T14:02:42.212Z,5.10
2022-08-28T14:05:45.284Z,7.40
2022-08-28T14:08:48.146Z,8.30
2022-08-28T14:11:51.037Z,8.20
2022-08-28T14:14:54.002Z,7.40
2022-08-28T14:17:57.518Z,8.50
2022-08-28T14:21:00.588Z,8.00
2022-08-28T14:24:04.432Z,8.20
2022-08-28T14:27:07.582Z,7.60
2022-08-28T14:30:11.431Z,7.50
2022-08-28T14:33:16.967Z,8.50
2022-08-28T14:36:26.538Z,8.70
2022-08-28T14:39:31.070Z,8.90
2022-08-28T14:42:34.372Z,7.40
2022-08-28T14:45:49.652Z,9.20
2022-08-28T14:48:52.641Z,8.40
2022-08-28T14:51:57.069Z,6.10
2022-08-28T14:54:59.999Z,6.40
2022-08-28T14:58:02.951Z,8.30
2022-08-28T15:01:06.265Z,7.20
2022-08-28T15:04:15.953Z,9.00
2022-08-28T15:07:21.283Z,9.40
2022-08-28T15:10:24.610Z,10.10
2022-08-28T15:13:31.421Z,9.90
2022-08-28T15:16:39.253Z,9.50
2022-08-28T15:19:42.326Z,9.30
2022-08-28T15:22:45.305Z,11.00
2022-08-28T15:25:48.820Z,10.40
2022-08-28T15:28:55.736Z,10.30
2022-08-28T15:31:59.128Z,10.40
2022-08-28T15:35:02.347Z,10.80
2022-08-28T15:38:07.148Z,12.50
2022-08-28T15:41:24.968Z,12.30
2022-08-28T15:44:28.200Z,12.30
2022-08-28T15:47:31.162Z,11.60
2022-08-28T15:50:34.501Z,10.10
2022-08-28T15:53:38.172Z,9.90
2022-08-28T15:56:41.737Z,11.90
2022-08-28T15:59:49.722Z,8.80
2022-08-28T16:02:59.834Z,10.60
2022-08-28T16:06:04.218Z,10.60
2022-08-28T16:09:09.648Z,9.30
2022-08-28T16:12:12.729Z,8.60
2022-08-28T16:15:20.680Z,8.70
2022-08-28T16:18:24.186Z,8.60
2022-08-28T16:21:28.149Z,10.00
2022-08-28T16:24:31.188Z,8.70
2022-08-28T16:27:34.223Z,8.10
2022-08-28T16:30:43.983Z,9.70
2022-08-28T16:33:48.058Z,8.80
2022-08-28T16:36:50.965Z,7.20
2022-08-28T16:39:55.004Z,7.70
2022-08-28T16:42:58.178Z,8.80
2022-08-28T16:46:01.015Z,7.90
2022-08-28T16:49:06.207Z,11.00
2022-08-28T16:52:10.215Z,8.60
2022-08-28T16:55:14.962Z,7.30
2022-08-28T16:58:18.307Z,7.80
2022-08-28T17:01:23.929Z,9.60
2022-08-28T17:04:27.436Z,9.60
2022-08-28T17:07:30.778Z,9.80
2022-08-28T17:10:35.909Z,9.40
2022-08-28T17:13:39.939Z,9.10
2022-08-28T17:16:43.175Z,11.50
2022-08-28T17:19:46.565Z,8.90
2022-08-28T17:22:49.960Z,9.80
2022-08-28T17:25:52.909Z,10.70
2022-08-28T17:28:55.860Z,9.10
2022-08-28T17:31:59.272Z,6.00
2022-08-28T17:35:02.537Z,6.90
2022-08-28T17:38:05.482Z,6.50
2022-08-28T17:41:09.171Z,8.40
2022-08-28T17:44:12.587Z,7.00
2022-08-28T17:47:15.801Z,11.00
2022-08-28T17:50:18.888Z,7.20
2022-08-28T17:53:27.177Z,8.20
2022-08-28T17:56:36.156Z,8.60
2022-08-28T17:59:39.757Z,7.50
2022-08-28T18:02:44.754Z,4.60
2022-08-28T18:05:47.671Z,5.20
2022-08-28T18:08:51.976Z,5.10
2022-08-28T18:11:55.409Z,4.40
2022-08-28T18:15:01.748Z,4.90
2022-08-28T18:18:04.961Z,7.00
2022-08-28T18:21:13.192Z,5.70
2022-08-28T18:24:17.577Z,6.70
2022-08-28T18:27:22.495Z,5.60
2022-08-28T18:30:26.003Z,5.90
2022-08-28T18:33:31.359Z,6.50
2022-08-28T18:36:36.641Z,5.30
2022-08-28T18:39:40.219Z,5.50
2022-08-28T18:42:45.739Z,6.10
2022-08-28T18:45:49.228Z,5.70
2022-08-28T18:48:54.783Z,6.50
2022-08-28T18:51:58.782Z,5.80
2022-08-28T18:55:05.202Z,6.00
2022-08-28T18:58:11.135Z,5.20
2022-08-28T19:01:18.904Z,6.80
2022-08-28T19:04:22.435Z,5.40
2022-08-28T19:07:25.443Z,5.70
2022-08-28T19:10:33.855Z,5.50
2022-08-28T19:13:38.930Z,6.10
2022-08-28T19:16:42.837Z,3.90
2022-08-28T19:19:46.075Z,3.60
2022-08-28T19:22:49.527Z,4.80
2022-08-28T19:25:52.937Z,3.70
2022-08-28T19:28:57.313Z,4.30
2022-08-28T19:32:00.718Z,3.90
2022-08-28T19:35:04.179Z,5.70
2022-08-28T19:38:07.196Z,7.00
2022-08-28T19:41:12.036Z,3.40
2022-08-28T19:44:15.203Z,4.70
2022-08-28T19:47:19.541Z,4.20
2022-08-28T19:50:22.527Z,4.30
2022-08-28T19:53:25.829Z,4.70
2022-08-28T19:56:31.639Z,5.00
2022-08-28T19:59:35.711Z,4.60
2022-08-28T20:02:38.747Z,5.50
2022-08-28T20:05:41.871Z,4.40
2022-08-28T20:08:44.822Z,4.60
2022-08-28T20:11:49.135Z,4.70
2022-08-28T20:14:52.341Z,5.10
2022-08-28T20:17:55.683Z,5.50
2022-08-28T20:20:58.529Z,5.60
2022-08-28T20:24:01.945Z,5.20
2022-08-28T20:27:06.539Z,4.80
2022-08-28T20:30:11.489Z,5.40
2022-08-28T20:33:14.472Z,5.40
2022-08-28T20:36:21.370Z,6.30
2022-08-28T20:39:24.726Z,8.40
2022-08-28T20:42:31.778Z,5.60
2022-08-28T20:45:34.978Z,5.30
2022-08-28T20:48:38.508Z,4.30
2022-08-28T20:52:15.952Z,5.10
2022-08-28T20:55:19.001Z,5.70
2022-08-28T20:58:23.006Z,6.00
2022-08-28T21:01:25.910Z,4.90
2022-08-28T21:04:30.380Z,6.20
2022-08-28T21:07:35.277Z,5.80
2022-08-28T21:10:40.584Z,5.40
2022-08-28T21:13:43.578Z,5.80
2022-08-28T21:16:47.043Z,5.70
2022-08-28T21:19:50.908Z,8.50
2022-08-28T21:22:53.873Z,8.00
2022-08-28T21:25:56.783Z,8.20
2022-08-28T21:28:59.725Z,9.90
2022-08-28T21:32:03.035Z,9.40
2022-08-28T21:35:08.109Z,9.30
2022-08-28T21:38:11.148Z,7.00
2022-08-28T21:41:15.227Z,5.50
2022-08-28T21:44:18.840Z,8.10
2022-08-28T21:47:23.659Z,8.90
2022-08-28T21:50:29.529Z,6.60
2022-08-28T21:53:32.891Z,8.20
2022-08-28T21:56:35.833Z,7.00
2022-08-28T21:59:39.093Z,7.70
2022-08-28T22:02:42.197Z,9.30
2022-08-28T22:05:47.284Z,9.50
2022-08-28T22:08:51.053Z,8.70
2022-08-28T22:11:54.015Z,10.70
2022-08-28T22:14:57.015Z,9.30
2022-08-28T22:18:00.642Z,9.70
2022-08-28T22:21:22.796Z,10.40
2022-08-28T22:24:25.709Z,10.00
2022-08-28T22:27:29.206Z,9.80
2022-08-28T22:30:33.574Z,11.50
2022-08-28T22:33:38.076Z,10.10
2022-08-28T22:36:41.014Z,12.40
2022-08-28T22:39:44.116Z,10.50
2022-08-28T22:42:47.589Z,11.20
2022-08-28T22:45:50.627Z,10.60
2022-08-28T22:48:53.876Z,10.40
2022-08-28T22:51:56.833Z,10.20
2022-08-28T22:54:59.705Z,12.40
2022-08-28T22:58:03.524Z,9.80
2022-08-28T23:01:11.162Z,11.00
2022-08-28T23:04:16.161Z,14.20
2022-08-28T23:07:19.149Z,11.50
2022-08-28T23:10:36.748Z,11.50
2022-08-28T23:13:45.688Z,14.70
2022-08-28T23:16:49.360Z,12.00
2022-08-28T23:19:53.264Z,12.40
2022-08-28T23:22:58.272Z,13.60
2022-08-28T23:26:01.546Z,12.90
2022-08-28T23:29:05.190Z,11.80
2022-08-28T23:32:08.223Z,15.80
2022-08-28T23:35:14.926Z,13.10
2022-08-28T23:38:17.925Z,11.90
2022-08-28T23:41:20.865Z,15.30
2022-08-28T23:44:25.040Z,11.80
2022-08-28T23:47:29.390Z,13.90
2022-08-28T23:50:33.002Z,14.90
2022-08-28T23:53:36.642Z,12.50
2022-08-28T23:56:39.756Z,12.80
2022-08-28T23:59:43.969Z,11.70
